createdAt,value
2022-08-08T00:00:52.596Z,0.82
2022-08-08T00:03:38.102Z,0.75
2022-08-08T00:06:48.417Z,0.70
2022-08-08T00:10:17.365Z,0.55
2022-08-08T00:14:16.755Z,0.90
2022-08-08T00:17:23.031Z,0.70
2022-08-08T00:20:49.910Z,0.73
2022-08-08T00:24:07.284Z,0.75
2022-08-08T00:27:13.917Z,0.80
2022-08-08T00:30:18.257Z,0.70
2022-08-08T00:33:29.111Z,0.70
2022-08-08T00:37:03.419Z,0.70
2022-08-08T00:41:12.530Z,0.73
2022-08-08T00:44:10.065Z,0.80
2022-08-08T00:47:36.930Z,0.83
2022-08-08T00:51:38.317Z,0.70
2022-08-08T00:55:03.526Z,0.85
2022-08-08T00:58:54.737Z,0.82
2022-08-08T01:04:01.734Z,0.80
2022-08-08T01:06:00.893Z,0.80
2022-08-08T01:09:35.061Z,0.70
2022-08-08T01:13:15.020Z,0.80
2022-08-08T01:16:18.919Z,0.85
2022-08-08T01:20:02.159Z,0.90
2022-08-08T01:24:05.528Z,0.62
2022-08-08T01:27:10.809Z,0.90
2022-08-08T01:30:31.559Z,0.93
2022-08-08T01:34:00.829Z,0.80
2022-08-08T01:37:57.669Z,0.70
2022-08-08T01:41:39.793Z,0.80
2022-08-08T01:45:13.889Z,1.00
2022-08-08T01:48:56.677Z,2.72
2022-08-08T01:52:57.336Z,1.58
2022-08-08T01:56:28.648Z,1.45
2022-08-08T01:59:38.048Z,1.20
2022-08-08T02:03:55.259Z,1.48
2022-08-08T02:07:13.826Z,1.23
2022-08-08T02:10:53.630Z,1.37
2022-08-08T02:14:19.597Z,1.20
2022-08-08T02:17:36.729Z,1.40
2022-08-08T02:21:21.129Z,1.85
2022-08-08T02:28:20.084Z,1.70
2022-08-08T02:31:59.230Z,1.37
2022-08-08T02:35:22.596Z,1.40
2022-08-08T02:38:49.206Z,1.30
2022-08-08T02:42:10.554Z,2.10
2022-08-08T02:45:22.280Z,1.60
2022-08-08T02:48:53.839Z,1.23
2022-08-08T02:52:11.466Z,1.55
2022-08-08T02:56:01.639Z,1.15
2022-08-08T02:59:56.769Z,1.48
2022-08-08T03:02:50.835Z,1.25
2022-08-08T03:06:34.436Z,1.23
2022-08-08T03:10:06.396Z,1.33
2022-08-08T03:15:59.173Z,1.50
2022-08-08T03:17:25.603Z,1.40
2022-08-08T03:20:51.621Z,1.40
2022-08-08T03:23:59.997Z,1.35
2022-08-08T03:27:18.712Z,2.20
2022-08-08T03:30:41.060Z,2.53
2022-08-08T03:34:18.978Z,1.67
2022-08-08T03:38:53.873Z,2.33
2022-08-08T03:40:57.328Z,1.70
2022-08-08T03:44:09.762Z,1.70
2022-08-08T03:47:20.490Z,1.70
2022-08-08T03:50:26.126Z,1.30
2022-08-08T03:53:42.691Z,1.60
2022-08-08T03:58:30.987Z,2.05
2022-08-08T04:00:27.152Z,1.50
2022-08-08T04:03:58.517Z,1.65
2022-08-08T04:06:57.466Z,1.33
2022-08-08T04:10:06.453Z,1.37
2022-08-08T04:13:17.479Z,1.60
2022-08-08T04:16:38.859Z,1.90
2022-08-08T04:19:50.108Z,1.62
2022-08-08T04:22:58.236Z,1.35
2022-08-08T04:26:09.071Z,1.70
2022-08-08T04:29:16.869Z,1.50
2022-08-08T04:32:30.213Z,1.77
2022-08-08T04:35:40.860Z,1.77
2022-08-08T04:39:31.245Z,1.65
2022-08-08T04:42:18.321Z,1.62
2022-08-08T04:45:21.907Z,1.87
2022-08-08T04:48:25.703Z,2.10
2022-08-08T04:51:55.143Z,2.05
2022-08-08T04:55:01.479Z,1.85
2022-08-08T04:58:08.172Z,2.03
2022-08-08T05:01:18.477Z,1.95
2022-08-08T05:04:24.766Z,1.83
2022-08-08T05:07:38.167Z,1.90
2022-08-08T05:10:47.415Z,2.22
2022-08-08T05:13:58.227Z,1.90
2022-08-08T05:17:10.851Z,2.30
2022-08-08T05:20:15.231Z,1.90
2022-08-08T05:23:19.850Z,2.10
2022-08-08T05:26:27.598Z,2.47
2022-08-08T05:29:31.837Z,1.87
2022-08-08T05:32:58.668Z,2.00
2022-08-08T05:36:09.950Z,1.90
2022-08-08T05:39:35.132Z,2.33
2022-08-08T05:42:50.052Z,2.28
2022-08-08T05:46:03.757Z,2.28
2022-08-08T05:49:13.516Z,1.90
2022-08-08T05:52:32.189Z,2.28
2022-08-08T05:56:10.453Z,2.47
2022-08-08T05:59:05.248Z,2.45
2022-08-08T06:02:44.082Z,2.05
2022-08-08T06:05:53.184Z,2.28
2022-08-08T06:09:58.070Z,2.10
2022-08-08T06:12:29.642Z,2.17
2022-08-08T06:15:51.181Z,2.20
2022-08-08T06:19:01.723Z,2.10
2022-08-08T06:22:32.209Z,2.47
2022-08-08T06:26:35.199Z,2.22
2022-08-08T06:29:26.013Z,1.92
2022-08-08T06:32:31.410Z,2.10
2022-08-08T06:36:06.964Z,2.47
2022-08-08T06:38:53.221Z,2.33
2022-08-08T06:42:04.428Z,2.70
2022-08-08T06:45:13.139Z,2.20
2022-08-08T06:48:17.158Z,2.22
2022-08-08T06:51:22.456Z,2.20
2022-08-08T06:54:26.836Z,1.67
2022-08-08T06:57:44.335Z,1.95
2022-08-08T07:00:48.915Z,1.80
2022-08-08T07:04:38.923Z,1.73
2022-08-08T07:07:38.569Z,2.03
2022-08-08T07:10:51.945Z,1.25
2022-08-08T07:14:03.658Z,1.42
2022-08-08T07:17:14.352Z,1.45
2022-08-08T07:20:30.266Z,1.42
2022-08-08T07:24:03.131Z,1.40
2022-08-08T07:27:16.388Z,1.40
2022-08-08T07:30:25.377Z,1.40
2022-08-08T07:33:37.988Z,1.33
2022-08-08T07:36:55.423Z,1.40
2022-08-08T07:40:01.924Z,1.50
2022-08-08T07:43:08.741Z,1.30
2022-08-08T07:49:33.082Z,1.10
2022-08-08T07:52:36.668Z,1.33
2022-08-08T07:55:48.409Z,1.05
2022-08-08T07:58:54.803Z,1.20
2022-08-08T08:02:33.098Z,1.37
2022-08-08T08:05:33.094Z,1.25
2022-08-08T08:08:41.968Z,1.02
2022-08-08T08:12:10.409Z,1.27
2022-08-08T08:15:34.019Z,1.25
2022-08-08T08:18:51.682Z,1.50
2022-08-08T08:22:00.844Z,1.20
2022-08-08T08:25:08.585Z,1.10
2022-08-08T08:28:16.998Z,1.40
2022-08-08T08:31:26.393Z,1.40
2022-08-08T08:34:32.424Z,1.30
2022-08-08T08:38:13.123Z,1.35
2022-08-08T08:41:13.099Z,1.37
2022-08-08T08:44:28.953Z,1.42
2022-08-08T08:47:44.128Z,1.70
2022-08-08T08:50:51.928Z,1.70
2022-08-08T08:53:59.868Z,1.70
2022-08-08T08:57:15.417Z,1.60
2022-08-08T09:00:19.826Z,1.55
2022-08-08T09:03:46.047Z,1.92
2022-08-08T09:06:50.566Z,1.80
2022-08-08T09:10:04.791Z,1.40
2022-08-08T09:13:08.634Z,1.62
2022-08-08T09:16:12.469Z,1.83
2022-08-08T09:19:33.939Z,1.80
2022-08-08T09:22:41.892Z,1.92
2022-08-08T09:26:03.373Z,1.90
2022-08-08T09:29:09.422Z,1.55
2022-08-08T09:32:19.457Z,2.10
2022-08-08T09:35:31.789Z,2.12
2022-08-08T09:38:59.699Z,1.67
2022-08-08T09:42:19.875Z,1.70
2022-08-08T09:46:00.703Z,1.92
2022-08-08T09:48:54.122Z,1.90
2022-08-08T09:52:06.766Z,2.10
2022-08-08T09:55:51.843Z,1.92
2022-08-08T09:58:57.712Z,2.07
2022-08-08T10:02:12.583Z,1.75
2022-08-08T10:05:26.147Z,1.80
2022-08-08T10:08:32.811Z,1.98
2022-08-08T10:12:28.028Z,1.90
2022-08-08T10:15:18.134Z,2.25
2022-08-08T10:18:36.088Z,2.30
2022-08-08T10:21:44.160Z,2.28
2022-08-08T10:25:04.608Z,2.37
2022-08-08T10:28:17.033Z,2.62
2022-08-08T10:31:41.299Z,2.53
2022-08-08T10:35:01.427Z,3.37
2022-08-08T10:38:08.627Z,2.62
2022-08-08T10:41:16.952Z,3.28
2022-08-08T10:44:40.599Z,3.28
2022-08-08T10:47:55.329Z,2.78
2022-08-08T10:50:58.982Z,3.50
2022-08-08T10:54:05.915Z,3.78
2022-08-08T10:57:10.585Z,4.12
2022-08-08T11:00:28.234Z,4.20
2022-08-08T11:04:00.583Z,4.50
2022-08-08T11:07:05.945Z,4.47
2022-08-08T11:10:19.824Z,4.93
2022-08-08T11:13:52.069Z,4.80
2022-08-08T11:17:08.693Z,4.70
2022-08-08T11:20:27.959Z,4.35
2022-08-08T11:23:35.353Z,4.60
2022-08-08T11:26:56.365Z,4.30
2022-08-08T11:30:24.059Z,4.30
2022-08-08T11:33:52.522Z,3.70
2022-08-08T11:36:52.179Z,3.90
2022-08-08T11:40:08.876Z,3.90
2022-08-08T11:43:13.671Z,3.40
2022-08-08T11:46:19.655Z,3.67
2022-08-08T11:49:24.952Z,2.97
2022-08-08T11:52:32.173Z,3.45
2022-08-08T11:55:47.319Z,3.30
2022-08-08T11:58:52.460Z,4.03
2022-08-08T12:02:30.614Z,3.53
2022-08-08T12:05:34.041Z,3.58
2022-08-08T12:08:38.509Z,3.75
2022-08-08T12:11:46.034Z,3.45
2022-08-08T12:15:06.004Z,2.60
2022-08-08T12:18:21.727Z,2.62
2022-08-08T12:21:59.335Z,2.65
2022-08-08T12:24:56.283Z,2.67
2022-08-08T12:28:15.790Z,2.47
2022-08-08T12:31:38.944Z,2.60
2022-08-08T12:35:04.926Z,1.90
2022-08-08T12:38:29.459Z,1.60
2022-08-08T12:41:57.189Z,1.33
2022-08-08T12:45:53.804Z,1.80
2022-08-08T12:48:37.708Z,1.70
2022-08-08T12:51:58.330Z,1.67
2022-08-08T12:55:09.361Z,1.70
2022-08-08T12:58:19.776Z,1.63
2022-08-08T13:01:37.670Z,1.60
2022-08-08T13:04:52.573Z,1.80
2022-08-08T13:08:04.266Z,1.87
2022-08-08T13:12:04.058Z,1.67
2022-08-08T13:15:08.372Z,1.87
2022-08-08T13:18:13.784Z,2.00
2022-08-08T13:21:36.434Z,1.77
2022-08-08T13:24:50.781Z,1.67
2022-08-08T13:28:00.598Z,1.60
2022-08-08T13:31:04.811Z,2.08
2022-08-08T13:34:12.752Z,1.80
2022-08-08T13:37:51.821Z,1.67
2022-08-08T13:40:44.940Z,1.80
2022-08-08T13:43:53.233Z,1.90
2022-08-08T13:47:01.606Z,2.10
2022-08-08T13:50:37.056Z,1.90
2022-08-08T13:53:36.525Z,1.70
2022-08-08T13:56:44.599Z,1.83
2022-08-08T14:00:21.704Z,1.87
2022-08-08T14:03:53.366Z,1.62
2022-08-08T14:07:00.765Z,1.65
2022-08-08T14:10:12.253Z,1.70
2022-08-08T14:13:33.948Z,1.75
2022-08-08T14:16:37.621Z,1.50
2022-08-08T14:19:57.488Z,1.87
2022-08-08T14:23:21.152Z,1.70
2022-08-08T14:26:46.395Z,1.62
2022-08-08T14:29:56.359Z,1.30
2022-08-08T14:32:59.749Z,1.65
2022-08-08T14:36:13.685Z,1.70
2022-08-08T14:39:24.959Z,1.60
2022-08-08T14:42:54.900Z,1.62
2022-08-08T14:46:06.804Z,1.55
2022-08-08T14:49:20.532Z,1.42
2022-08-08T14:52:57.056Z,1.50
2022-08-08T14:56:02.171Z,1.62
2022-08-08T14:59:22.162Z,1.62
2022-08-08T15:02:36.271Z,1.67
2022-08-08T15:06:01.073Z,1.30
2022-08-08T15:09:04.907Z,1.87
2022-08-08T15:12:08.871Z,1.40
2022-08-08T15:15:18.645Z,1.33
2022-08-08T15:18:38.544Z,1.60
2022-08-08T15:21:44.729Z,1.40
2022-08-08T15:24:50.755Z,1.67
2022-08-08T15:28:04.011Z,1.77
2022-08-08T15:31:49.045Z,1.60
2022-08-08T15:34:46.388Z,1.48
2022-08-08T15:37:49.280Z,1.40
2022-08-08T15:40:55.461Z,1.30
2022-08-08T15:44:01.607Z,1.50
2022-08-08T15:47:16.096Z,1.40
2022-08-08T15:50:21.583Z,1.30
2022-08-08T15:53:28.331Z,1.62
2022-08-08T15:56:43.527Z,1.50
2022-08-08T16:00:26.366Z,1.40
2022-08-08T16:03:15.629Z,1.40
2022-08-08T16:06:28.808Z,1.67
2022-08-08T16:13:05.869Z,1.45
2022-08-08T16:13:14.684Z,1.48
2022-08-08T16:16:25.693Z,1.62
2022-08-08T16:20:00.191Z,1.90
2022-08-08T16:22:49.389Z,1.60
2022-08-08T16:25:58.215Z,1.60
2022-08-08T16:29:15.702Z,1.70
2022-08-08T16:32:27.620Z,1.70
2022-08-08T16:35:32.013Z,1.70
2022-08-08T16:38:34.745Z,1.60
2022-08-08T16:41:41.391Z,1.65
2022-08-08T16:44:47.439Z,1.60
2022-08-08T16:48:01.217Z,2.10
2022-08-08T16:51:04.488Z,1.40
2022-08-08T16:55:02.809Z,1.80
2022-08-08T16:58:16.616Z,1.80
2022-08-08T17:00:58.934Z,1.60
2022-08-08T17:04:03.814Z,1.52
2022-08-08T17:07:07.088Z,1.73
2022-08-08T17:10:16.933Z,1.42
2022-08-08T17:13:50.319Z,1.60
2022-08-08T17:16:57.489Z,1.33
2022-08-08T17:20:06.302Z,0.95
2022-08-08T17:23:16.449Z,1.37
2022-08-08T17:26:28.988Z,1.48
2022-08-08T17:29:36.433Z,1.45
2022-08-08T17:34:36.003Z,1.60
2022-08-08T17:36:12.554Z,1.35
2022-08-08T17:40:04.826Z,1.10
2022-08-08T17:42:40.378Z,1.33
2022-08-08T17:45:44.245Z,1.42
2022-08-08T17:48:50.076Z,1.40
2022-08-08T17:51:56.424Z,1.60
2022-08-08T17:55:00.319Z,1.50
2022-08-08T17:58:03.575Z,1.35
2022-08-08T18:01:10.281Z,1.60
2022-08-08T18:04:19.743Z,1.52
2022-08-08T18:08:02.765Z,1.20
2022-08-08T18:10:51.401Z,1.42
2022-08-08T18:13:56.101Z,1.50
2022-08-08T18:16:59.973Z,1.40
2022-08-08T18:20:43.933Z,1.40
2022-08-08T18:23:25.100Z,1.80
2022-08-08T18:26:34.463Z,1.40
2022-08-08T18:29:37.645Z,1.55
2022-08-08T18:32:45.930Z,1.85
2022-08-08T18:35:50.285Z,1.90
2022-08-08T18:38:53.952Z,1.85
2022-08-08T18:42:03.238Z,1.77
2022-08-08T18:45:09.299Z,1.90
2022-08-08T18:48:25.867Z,1.60
2022-08-08T18:51:53.462Z,1.80
2022-08-08T18:54:59.669Z,1.90
2022-08-08T18:58:10.296Z,1.98
2022-08-08T19:02:26.610Z,1.58
2022-08-08T19:04:31.196Z,1.65
2022-08-08T19:07:37.511Z,1.52
2022-08-08T19:10:41.302Z,1.60
2022-08-08T19:13:56.457Z,1.90
2022-08-08T19:17:03.938Z,1.87
2022-08-08T19:20:09.404Z,1.70
2022-08-08T19:23:12.163Z,1.60
2022-08-08T19:26:29.999Z,1.52
2022-08-08T19:29:29.843Z,1.60
2022-08-08T19:32:35.558Z,1.80
2022-08-08T19:36:08.264Z,1.70
2022-08-08T19:39:06.566Z,1.40
2022-08-08T19:45:59.738Z,1.75
2022-08-08T19:48:48.947Z,1.77
2022-08-08T19:51:52.764Z,1.50
2022-08-08T19:55:00.579Z,1.45
2022-08-08T19:58:07.558Z,1.70
2022-08-08T20:01:17.326Z,1.73
2022-08-08T20:04:27.554Z,1.30
2022-08-08T20:08:29.192Z,1.42
2022-08-08T20:10:47.924Z,1.50
2022-08-08T20:14:32.961Z,1.50
2022-08-08T20:17:06.471Z,1.50
2022-08-08T20:20:12.542Z,1.37
2022-08-08T20:23:21.723Z,1.40
2022-08-08T20:26:27.688Z,1.50
2022-08-08T20:29:45.828Z,1.62
2022-08-08T20:32:59.890Z,1.58
2022-08-08T20:36:11.071Z,1.80
2022-08-08T20:39:20.088Z,1.20
2022-08-08T20:42:29.222Z,1.33
2022-08-08T20:45:57.869Z,1.50
2022-08-08T20:48:51.639Z,1.40
2022-08-08T20:51:56.365Z,1.50
2022-08-08T20:55:16.205Z,1.23
2022-08-08T20:58:22.891Z,1.33
2022-08-08T21:02:05.449Z,1.55
2022-08-08T21:04:51.927Z,1.37
2022-08-08T21:08:33.707Z,1.27
2022-08-08T21:11:50.440Z,1.40
2022-08-08T21:14:43.686Z,1.33
2022-08-08T21:17:55.897Z,1.30
2022-08-08T21:21:02.951Z,1.20
2022-08-08T21:24:25.603Z,1.10
2022-08-08T21:28:05.325Z,1.43
2022-08-08T21:30:52.311Z,1.40
2022-08-08T21:33:55.559Z,1.50
2022-08-08T21:37:05.308Z,1.40
2022-08-08T21:40:31.525Z,1.50
2022-08-08T21:43:35.620Z,1.37
2022-08-08T21:48:05.521Z,1.70
2022-08-08T21:49:57.283Z,1.80
2022-08-08T21:54:32.565Z,1.67
2022-08-08T21:56:19.932Z,1.75
2022-08-08T22:00:01.312Z,1.50
2022-08-08T22:02:54.989Z,1.52
2022-08-08T22:05:58.856Z,1.90
2022-08-08T22:09:08.055Z,1.73
2022-08-08T22:12:28.973Z,1.92
2022-08-08T22:15:34.799Z,1.87
2022-08-08T22:18:38.693Z,1.75
2022-08-08T22:21:42.686Z,2.00
2022-08-08T22:24:48.483Z,1.77
2022-08-08T22:28:02.721Z,1.83
2022-08-08T22:31:06.694Z,1.30
2022-08-08T22:34:12.614Z,1.58
2022-08-08T22:37:48.756Z,1.67
2022-08-08T22:40:48.276Z,1.52
2022-08-08T22:47:17.867Z,1.37
2022-08-08T22:50:33.003Z,1.67
2022-08-08T22:54:32.306Z,1.60
2022-08-08T22:56:59.666Z,1.65
2022-08-08T23:00:02.699Z,1.60
2022-08-08T23:03:07.830Z,1.80
2022-08-08T23:06:12.811Z,1.73
2022-08-08T23:09:16.430Z,1.77
2022-08-08T23:12:39.873Z,1.65
2022-08-08T23:16:37.612Z,1.87
2022-08-08T23:18:50.010Z,1.90
2022-08-08T23:21:55.164Z,1.85
2022-08-08T23:24:58.846Z,2.45
2022-08-08T23:28:03.954Z,2.40
2022-08-08T23:31:07.250Z,2.10
2022-08-08T23:34:17.222Z,2.20
2022-08-08T23:37:24.807Z,2.00
2022-08-08T23:40:40.879Z,2.20
2022-08-08T23:43:45.707Z,2.45
2022-08-08T23:49:03.338Z,2.45
2022-08-08T23:50:30.656Z,2.47
2022-08-08T23:54:06.319Z,2.20
2022-08-08T23:56:59.112Z,2.33
